createdAt,value
2022-12-19T20:24:16.580Z,52.32
2022-12-19T20:25:16.491Z,52.17
2022-12-19T20:26:16.512Z,52.08
2022-12-19T20:27:16.809Z,51.94
2022-12-19T20:28:16.004Z,52.01
2022-12-19T20:29:16.347Z,52.03
2022-12-19T20:30:15.738Z,52.10
2022-12-19T20:31:15.685Z,52.26
2022-12-19T20:32:15.405Z,52.17
2022-12-19T20:33:15.335Z,52.38
2022-12-19T20:34:15.329Z,52.46
2022-12-19T20:35:15.325Z,52.31
2022-12-19T20:36:15.649Z,52.37
2022-12-19T20:37:14.848Z,52.43
2022-12-19T20:38:16.670Z,52.40
2022-12-19T20:40:13.813Z,52.61
2022-12-19T20:41:13.728Z,53.52
2022-12-19T20:42:13.543Z,52.68
2022-12-19T20:43:13.325Z,52.45
2022-12-19T20:44:15.478Z,52.44
2022-12-19T20:45:12.844Z,52.43
2022-12-19T20:46:12.791Z,52.41
2022-12-19T20:47:12.544Z,52.45
2022-12-19T20:48:12.372Z,52.33
2022-12-19T20:49:12.135Z,52.39
2022-12-19T20:50:12.661Z,52.46
2022-12-19T20:51:11.845Z,52.55
2022-12-19T20:52:11.569Z,52.52
2022-12-19T20:53:11.340Z,52.72
2022-12-19T20:54:11.152Z,52.37
2022-12-19T21:13:21.094Z,53.10
2022-12-19T21:14:20.596Z,53.12
2022-12-19T21:15:21.044Z,53.23
2022-12-19T21:16:20.694Z,53.34
2022-12-19T21:17:20.615Z,53.63
2022-12-19T21:18:20.608Z,53.74
2022-12-19T21:19:19.601Z,53.83
2022-12-19T21:20:19.493Z,53.92
2022-12-19T21:23:01.925Z,54.35
2022-12-19T21:37:01.177Z,53.63
2022-12-19T21:48:00.229Z,50.23
2022-12-19T21:49:00.055Z,50.17
2022-12-19T21:50:59.739Z,50.19
2022-12-19T22:01:58.884Z,50.17
2022-12-19T22:08:57.952Z,50.18
2022-12-19T22:09:57.822Z,50.20
2022-12-19T22:10:58.128Z,50.29
2022-12-19T22:11:57.418Z,50.25
2022-12-19T22:12:57.644Z,50.26
2022-12-19T22:13:57.634Z,50.24
2022-12-19T22:14:58.162Z,50.38
2022-12-19T22:15:57.162Z,50.38
2022-12-19T22:16:57.116Z,50.40
2022-12-19T22:17:56.946Z,50.41
2022-12-19T22:18:56.982Z,50.28
2022-12-19T22:19:57.165Z,50.41
2022-12-19T22:20:56.674Z,50.31
2022-12-19T22:21:56.573Z,50.33
2022-12-19T22:22:57.209Z,50.49
2022-12-19T22:23:56.394Z,50.46
2022-12-19T22:24:56.188Z,50.49
2022-12-19T22:25:56.099Z,50.48
2022-12-19T22:26:55.980Z,50.41
2022-12-19T22:27:57.634Z,50.52
2022-12-19T22:28:56.839Z,50.45
2022-12-19T22:29:56.206Z,50.42
2022-12-19T22:30:55.646Z,50.49
2022-12-19T22:31:55.458Z,50.53
2022-12-19T22:32:55.313Z,50.59
2022-12-19T22:33:55.850Z,50.72
2022-12-19T22:34:55.240Z,50.62
2022-12-19T22:35:56.161Z,50.70
2022-12-19T22:36:55.160Z,50.68
2022-12-19T22:37:55.710Z,50.76
2022-12-19T22:38:54.837Z,50.84
2022-12-19T22:39:54.561Z,50.74
2022-12-19T22:40:54.440Z,50.78
2022-12-19T22:41:54.685Z,50.80
2022-12-19T22:42:54.680Z,50.69
2022-12-19T22:43:54.367Z,50.79
2022-12-19T22:44:54.057Z,50.86
2022-12-19T22:45:54.013Z,50.79
2022-12-19T22:46:54.281Z,50.86
2022-12-19T22:47:53.767Z,50.86
2022-12-19T22:48:56.781Z,50.88
2022-12-19T22:49:53.498Z,50.90
2022-12-19T22:50:53.412Z,51.04
2022-12-19T22:51:53.285Z,51.00
2022-12-19T22:52:53.217Z,51.01
2022-12-19T22:53:54.799Z,51.06
2022-12-19T22:54:54.751Z,50.95
2022-12-19T22:55:52.799Z,51.01
2022-12-19T22:56:52.702Z,50.95
2022-12-19T22:57:52.605Z,51.02
2022-12-19T22:58:53.227Z,50.98
2022-12-19T22:59:52.766Z,51.15
2022-12-19T23:00:52.235Z,51.08
2022-12-19T23:01:52.318Z,51.06
2022-12-19T23:02:52.394Z,51.13
2022-12-19T23:03:52.421Z,51.14
2022-12-19T23:04:52.242Z,51.04
2022-12-19T23:05:52.191Z,51.10
2022-12-19T23:06:51.540Z,51.08
2022-12-19T23:07:51.776Z,51.11
2022-12-19T23:08:51.784Z,51.05
2022-12-19T23:09:51.150Z,51.15
2022-12-19T23:10:51.063Z,51.13
2022-12-19T23:11:51.004Z,51.15
2022-12-19T23:12:51.387Z,51.25
2022-12-19T23:13:50.786Z,51.23
2022-12-19T23:14:50.588Z,51.20
2022-12-19T23:15:50.489Z,51.20
2022-12-19T23:16:50.412Z,51.22
2022-12-19T23:17:50.285Z,51.27
2022-12-19T23:18:53.256Z,51.25
2022-12-19T23:19:49.996Z,51.24
2022-12-19T23:20:49.887Z,51.31
2022-12-19T23:21:49.808Z,51.35
2022-12-19T23:22:49.804Z,51.33
2022-12-19T23:23:49.539Z,51.32
2022-12-19T23:24:49.404Z,51.28
2022-12-19T23:25:49.309Z,51.39
2022-12-19T23:26:50.767Z,51.37
2022-12-19T23:27:49.055Z,51.37
2022-12-19T23:28:48.923Z,51.32
2022-12-19T23:29:48.836Z,51.41
2022-12-19T23:30:49.244Z,51.36
2022-12-19T23:31:48.808Z,51.35
2022-12-19T23:32:50.874Z,51.50
2022-12-19T23:33:48.357Z,51.39
2022-12-19T23:34:48.273Z,51.39
2022-12-19T23:35:48.769Z,51.42
2022-12-19T23:37:49.309Z,51.38
2022-12-19T23:38:48.287Z,51.40
2022-12-19T23:39:48.276Z,51.44
2022-12-19T23:40:47.669Z,51.47
2022-12-19T23:41:47.606Z,51.47
2022-12-19T23:42:47.512Z,51.45
2022-12-19T23:43:47.807Z,51.47
2022-12-19T23:44:47.180Z,51.45
2022-12-19T23:45:47.807Z,51.44
2022-12-19T23:46:46.988Z,51.49
2022-12-19T23:47:46.805Z,51.51
2022-12-19T23:48:46.736Z,51.57
2022-12-19T23:49:46.601Z,51.47
2022-12-19T23:50:46.436Z,51.46
2022-12-19T23:51:46.331Z,51.46
2022-12-19T23:52:46.210Z,51.53
2022-12-19T23:53:47.656Z,51.57
2022-12-19T23:54:46.051Z,51.55
2022-12-19T23:55:45.850Z,51.51
2022-12-19T23:56:45.734Z,51.61
2022-12-19T23:57:46.273Z,51.53
2022-12-19T23:58:45.875Z,51.57
2022-12-19T23:59:46.176Z,51.61
